createdAt,value
2023-01-21T00:00:19.893Z,-0.39
2023-01-21T00:04:24.442Z,-0.42
2023-01-21T00:08:27.826Z,-0.46
2023-01-21T00:12:30.796Z,-0.45
2023-01-21T00:16:33.777Z,-0.48
2023-01-21T00:20:38.460Z,-0.53
2023-01-21T00:24:41.267Z,-0.53
2023-01-21T00:28:44.790Z,-0.59
2023-01-21T00:32:48.598Z,-0.56
2023-01-21T00:36:56.354Z,-0.52
2023-01-21T00:41:03.451Z,-0.51
2023-01-21T00:45:07.909Z,-0.50
2023-01-21T00:49:10.946Z,-0.50
2023-01-21T00:53:15.296Z,-0.51
2023-01-21T00:57:18.315Z,-0.55
2023-01-21T01:01:22.794Z,-0.58
2023-01-21T01:05:26.045Z,-0.59
2023-01-21T01:09:30.669Z,-0.59
2023-01-21T01:13:35.270Z,-0.60
2023-01-21T01:17:38.351Z,-0.60
2023-01-21T01:21:50.597Z,-0.64
2023-01-21T01:26:11.918Z,-0.69
2023-01-21T01:30:25.395Z,-0.74
2023-01-21T01:34:28.453Z,-0.79
2023-01-21T01:38:31.526Z,-0.82
2023-01-21T01:42:35.855Z,-0.82
2023-01-21T01:46:38.955Z,-0.86
2023-01-21T01:50:43.776Z,-0.88
2023-01-21T01:54:49.962Z,-0.95
2023-01-21T01:58:54.600Z,-0.94
2023-01-21T02:03:15.488Z,-0.95
2023-01-21T02:07:21.660Z,-0.98
2023-01-21T02:11:25.524Z,-0.96
2023-01-21T02:15:36.863Z,-0.94
2023-01-21T02:20:13.215Z,-0.89
2023-01-21T02:25:01.561Z,-0.90
2023-01-21T02:29:35.529Z,-0.87
2023-01-21T02:33:57.218Z,-0.88
2023-01-21T02:38:06.861Z,-0.86
2023-01-21T02:42:19.746Z,-0.88
2023-01-21T02:46:29.882Z,-0.86
2023-01-21T02:50:36.958Z,-0.87
2023-01-21T02:54:51.304Z,-0.95
2023-01-21T02:58:58.221Z,-1.01
2023-01-21T03:03:24.075Z,-1.02
2023-01-21T03:07:34.258Z,-1.05
2023-01-21T03:11:38.227Z,-1.07
2023-01-21T03:16:14.605Z,-1.09
2023-01-21T03:20:25.722Z,-1.11
2023-01-21T03:24:33.084Z,-1.15
2023-01-21T03:28:45.261Z,-1.18
2023-01-21T03:32:51.761Z,-1.24
2023-01-21T03:37:02.083Z,-1.24
2023-01-21T03:41:12.995Z,-1.20
2023-01-21T03:45:15.905Z,-1.20
2023-01-21T03:49:23.741Z,-1.20
2023-01-21T03:53:27.015Z,-1.23
2023-01-21T03:57:38.785Z,-1.21
2023-01-21T04:01:42.031Z,-1.23
2023-01-21T04:05:45.598Z,-1.26
2023-01-21T04:09:50.984Z,-1.29
2023-01-21T04:13:55.447Z,-1.32
2023-01-21T04:17:59.832Z,-1.40
2023-01-21T04:22:03.256Z,-1.38
2023-01-21T04:26:07.528Z,-1.34
2023-01-21T04:30:12.564Z,-1.28
2023-01-21T04:34:16.564Z,-1.25
2023-01-21T04:38:19.450Z,-1.21
2023-01-21T04:42:22.378Z,-1.12
2023-01-21T04:46:26.737Z,-1.04
2023-01-21T04:50:30.558Z,-0.96
2023-01-21T04:54:33.625Z,-0.88
2023-01-21T04:58:36.534Z,-0.82
2023-01-21T05:02:40.886Z,-0.75
2023-01-21T05:06:50.506Z,-0.69
2023-01-21T05:10:53.783Z,-0.62
2023-01-21T05:14:58.127Z,-0.56
2023-01-21T05:19:02.371Z,-0.49
2023-01-21T05:23:05.364Z,-0.43
2023-01-21T05:27:08.219Z,-0.36
2023-01-21T05:31:11.338Z,-0.28
2023-01-21T05:35:18.979Z,-0.21
2023-01-21T05:39:21.830Z,-0.16
2023-01-21T05:43:25.413Z,-0.05
2023-01-21T05:47:28.469Z,0.00
2023-01-21T05:51:33.322Z,0.06
2023-01-21T05:55:37.950Z,0.08
2023-01-21T05:59:41.268Z,0.18
2023-01-21T06:03:44.136Z,0.25
2023-01-21T06:07:48.491Z,0.32
2023-01-21T06:11:51.275Z,0.38
2023-01-21T06:15:55.919Z,0.41
2023-01-21T06:19:58.845Z,0.46
2023-01-21T06:24:03.477Z,0.52
2023-01-21T06:28:08.046Z,0.50
2023-01-21T06:32:10.951Z,0.52
2023-01-21T06:36:13.857Z,0.50
2023-01-21T06:40:19.082Z,0.52
2023-01-21T06:44:22.598Z,0.54
2023-01-21T06:48:25.655Z,0.47
2023-01-21T06:52:28.425Z,0.52
2023-01-21T06:56:33.248Z,0.61
2023-01-21T07:00:36.173Z,0.64
2023-01-21T07:04:39.454Z,0.65
2023-01-21T07:08:42.496Z,0.68
2023-01-21T07:12:46.878Z,0.70
2023-01-21T07:16:50.933Z,0.68
2023-01-21T07:20:54.139Z,0.70
2023-01-21T07:24:56.920Z,0.75
2023-01-21T07:29:02.099Z,0.76
2023-01-21T07:33:08.852Z,0.77
2023-01-21T07:37:11.777Z,0.75
2023-01-21T07:41:14.721Z,0.74
2023-01-21T07:45:19.518Z,0.80
2023-01-21T07:49:22.594Z,0.85
2023-01-21T07:53:26.467Z,0.89
2023-01-21T07:57:29.743Z,0.90
2023-01-21T08:01:34.575Z,0.88
2023-01-21T08:05:37.589Z,0.90
2023-01-21T08:09:40.801Z,0.87
2023-01-21T08:13:44.659Z,0.89
2023-01-21T08:17:49.010Z,0.85
2023-01-21T08:21:52.541Z,0.80
2023-01-21T08:25:55.750Z,0.75
2023-01-21T08:29:58.973Z,0.79
2023-01-21T08:34:03.439Z,0.85
2023-01-21T08:38:06.989Z,0.88
2023-01-21T08:42:10.121Z,0.89
2023-01-21T08:46:14.734Z,0.89
2023-01-21T08:50:19.969Z,0.91
2023-01-21T08:54:22.784Z,0.91
2023-01-21T08:58:25.832Z,0.97
2023-01-21T09:02:28.804Z,0.97
2023-01-21T09:06:33.706Z,0.97
2023-01-21T09:10:54.185Z,0.97
2023-01-21T09:14:57.115Z,1.02
2023-01-21T09:19:01.236Z,1.02
2023-01-21T09:23:23.983Z,1.04
2023-01-21T09:27:28.122Z,1.09
2023-01-21T09:31:32.047Z,1.15
2023-01-21T09:35:35.462Z,1.21
2023-01-21T09:39:42.444Z,1.24
2023-01-21T09:43:50.025Z,1.36
2023-01-21T09:47:55.345Z,1.41
2023-01-21T09:52:04.468Z,1.51
2023-01-21T09:56:19.158Z,1.60
2023-01-21T10:00:37.777Z,1.64
2023-01-21T10:04:49.064Z,1.67
2023-01-21T10:09:18.111Z,1.79
2023-01-21T10:13:41.821Z,1.80
2023-01-21T10:18:00.451Z,1.84
2023-01-21T10:22:06.872Z,1.95
2023-01-21T10:26:12.909Z,1.97
2023-01-21T10:30:26.070Z,2.02
2023-01-21T10:34:31.371Z,2.04
2023-01-21T10:38:42.002Z,2.08
2023-01-21T10:43:00.384Z,2.16
2023-01-21T10:47:13.529Z,2.29
2023-01-21T10:51:23.119Z,2.31
2023-01-21T10:55:39.142Z,2.40
2023-01-21T10:59:43.748Z,2.50
2023-01-21T11:03:51.851Z,2.52
2023-01-21T11:07:56.274Z,2.52
2023-01-21T11:12:00.405Z,2.52
2023-01-21T11:16:04.482Z,2.58
2023-01-21T11:20:23.650Z,2.51
2023-01-21T11:24:29.564Z,2.59
2023-01-21T11:28:33.176Z,2.68
2023-01-21T11:32:37.837Z,2.76
2023-01-21T11:37:02.401Z,2.79
2023-01-21T11:41:10.909Z,2.77
2023-01-21T11:45:28.689Z,2.73
2023-01-21T11:49:33.356Z,2.72
2023-01-21T11:53:38.274Z,2.72
2023-01-21T11:57:41.174Z,2.81
2023-01-21T12:01:53.035Z,2.81
2023-01-21T12:05:57.775Z,2.87
2023-01-21T12:10:09.502Z,2.85
2023-01-21T12:14:24.286Z,2.88
2023-01-21T12:18:38.809Z,2.79
2023-01-21T12:23:04.321Z,2.79
2023-01-21T12:27:19.955Z,2.78
2023-01-21T12:31:29.861Z,2.75
2023-01-21T12:35:39.748Z,2.78
2023-01-21T12:39:44.335Z,2.83
2023-01-21T12:43:53.591Z,2.91
2023-01-21T12:48:01.363Z,3.03
2023-01-21T12:52:09.564Z,3.09
2023-01-21T12:56:29.015Z,3.15
2023-01-21T13:00:36.640Z,3.25
2023-01-21T13:04:52.647Z,3.19
2023-01-21T13:09:01.012Z,3.20
2023-01-21T13:13:12.275Z,3.31
2023-01-21T13:17:20.619Z,3.39
2023-01-21T13:21:33.124Z,3.41
2023-01-21T13:25:45.672Z,3.40
2023-01-21T13:29:56.057Z,3.51
2023-01-21T13:34:08.412Z,3.54
2023-01-21T13:38:25.220Z,3.51
2023-01-21T13:42:40.409Z,3.55
2023-01-21T13:46:57.008Z,3.48
2023-01-21T13:51:17.207Z,3.51
2023-01-21T13:55:38.282Z,3.52
2023-01-21T13:59:47.094Z,3.54
2023-01-21T14:03:55.897Z,3.60
2023-01-21T14:08:07.437Z,3.61
2023-01-21T14:12:18.576Z,3.55
2023-01-21T14:16:53.529Z,3.47
2023-01-21T14:21:27.242Z,3.42
2023-01-21T14:25:45.793Z,3.43
2023-01-21T14:29:54.902Z,3.40
2023-01-21T14:34:05.851Z,3.37
2023-01-21T14:38:18.713Z,3.31
2023-01-21T14:42:41.538Z,3.25
2023-01-21T14:47:14.735Z,3.28
2023-01-21T14:51:22.551Z,3.30
2023-01-21T14:55:28.761Z,3.27
2023-01-21T14:59:37.313Z,3.20
2023-01-21T15:03:49.710Z,3.09
2023-01-21T15:08:06.215Z,3.04
2023-01-21T15:12:16.785Z,2.97
2023-01-21T15:16:36.182Z,2.90
2023-01-21T15:20:46.356Z,2.81
2023-01-21T15:25:19.620Z,2.75
2023-01-21T15:29:35.822Z,2.68
2023-01-21T15:33:56.442Z,2.61
2023-01-21T15:38:04.064Z,2.52
2023-01-21T15:42:18.923Z,2.42
2023-01-21T15:46:29.859Z,2.32
2023-01-21T15:50:40.946Z,2.25
2023-01-21T15:54:51.161Z,2.19
2023-01-21T15:59:08.146Z,2.14
2023-01-21T16:03:20.089Z,2.08
2023-01-21T16:07:35.796Z,1.97
2023-01-21T16:11:57.372Z,1.92
2023-01-21T16:16:10.953Z,1.92
2023-01-21T16:20:16.504Z,1.83
2023-01-21T16:24:25.870Z,1.77
2023-01-21T16:28:42.919Z,1.72
2023-01-21T16:33:10.204Z,1.61
2023-01-21T16:37:15.526Z,1.55
2023-01-21T16:41:25.060Z,1.47
2023-01-21T16:45:28.277Z,1.44
2023-01-21T16:49:31.360Z,1.40
2023-01-21T16:53:34.116Z,1.35
2023-01-21T16:57:38.976Z,1.31
2023-01-21T17:01:42.084Z,1.30
2023-01-21T17:05:46.587Z,1.23
2023-01-21T17:09:57.132Z,1.22
2023-01-21T17:14:02.691Z,1.22
2023-01-21T17:18:11.680Z,1.22
2023-01-21T17:22:18.340Z,1.18
2023-01-21T17:26:26.050Z,1.16
2023-01-21T17:30:33.933Z,1.12
2023-01-21T17:34:41.740Z,1.15
2023-01-21T17:38:46.327Z,1.17
2023-01-21T17:42:49.349Z,1.19
2023-01-21T17:46:55.236Z,1.25
2023-01-21T17:51:05.749Z,1.29
2023-01-21T17:55:14.847Z,1.27
2023-01-21T17:59:31.487Z,1.35
2023-01-21T18:03:36.695Z,1.40
2023-01-21T18:07:39.493Z,1.41
2023-01-21T18:11:44.839Z,1.45
2023-01-21T18:15:51.485Z,1.51
2023-01-21T18:19:57.943Z,1.53
2023-01-21T18:24:01.372Z,1.55
2023-01-21T18:28:05.419Z,1.55
2023-01-21T18:32:12.255Z,1.60
2023-01-21T18:36:17.294Z,1.59
2023-01-21T18:40:22.497Z,1.60
2023-01-21T18:44:27.369Z,1.59
2023-01-21T18:48:32.056Z,1.56
2023-01-21T18:52:36.573Z,1.58
2023-01-21T18:56:40.181Z,1.59
2023-01-21T19:00:43.139Z,1.55
2023-01-21T19:04:47.492Z,1.55
2023-01-21T19:08:52.045Z,1.54
2023-01-21T19:12:55.426Z,1.55
2023-01-21T19:16:58.514Z,1.53
2023-01-21T19:21:01.363Z,1.44
2023-01-21T19:25:06.468Z,1.43
2023-01-21T19:29:16.236Z,1.40
2023-01-21T19:33:37.289Z,1.37
2023-01-21T19:37:41.040Z,1.32
2023-01-21T19:41:46.105Z,1.26
2023-01-21T19:45:51.139Z,1.23
2023-01-21T19:49:54.045Z,1.23
2023-01-21T19:53:56.822Z,1.20
2023-01-21T19:58:02.951Z,1.17
2023-01-21T20:02:06.084Z,1.05
2023-01-21T20:06:11.924Z,1.04
2023-01-21T20:10:16.896Z,1.03
2023-01-21T20:14:21.398Z,0.99
2023-01-21T20:18:26.563Z,0.94
2023-01-21T20:22:29.618Z,0.88
2023-01-21T20:26:33.548Z,0.89
2023-01-21T20:30:37.932Z,0.91
2023-01-21T20:34:52.147Z,0.82
2023-01-21T20:38:56.136Z,0.73
2023-01-21T20:42:59.179Z,0.67
2023-01-21T20:47:03.416Z,0.63
2023-01-21T20:51:07.579Z,0.53
2023-01-21T20:55:12.118Z,0.54
2023-01-21T20:59:15.670Z,0.58
2023-01-21T21:03:20.186Z,0.60
2023-01-21T21:07:26.446Z,0.60
2023-01-21T21:11:30.202Z,0.54
2023-01-21T21:15:35.594Z,0.53
2023-01-21T21:19:40.314Z,0.55
2023-01-21T21:23:46.429Z,0.54
2023-01-21T21:27:50.569Z,0.49
2023-01-21T21:31:54.817Z,0.45
2023-01-21T21:36:01.507Z,0.48
2023-01-21T21:40:05.811Z,0.48
2023-01-21T21:44:10.842Z,0.46
2023-01-21T21:48:41.264Z,0.44
2023-01-21T21:52:45.758Z,0.43
2023-01-21T21:56:49.119Z,0.41
2023-01-21T22:00:54.074Z,0.36
2023-01-21T22:04:57.032Z,0.38
2023-01-21T22:09:01.434Z,0.32
2023-01-21T22:13:04.862Z,0.28
2023-01-21T22:17:08.579Z,0.29
2023-01-21T22:21:14.720Z,0.30
2023-01-21T22:25:19.578Z,0.26
2023-01-21T22:29:22.687Z,0.25
2023-01-21T22:33:26.258Z,0.20
2023-01-21T22:37:29.463Z,0.18
2023-01-21T22:41:35.405Z,0.17
2023-01-21T22:45:38.450Z,0.16
2023-01-21T22:49:41.880Z,0.16
2023-01-21T22:53:44.829Z,0.19
2023-01-21T22:57:49.337Z,0.17
2023-01-21T23:01:52.312Z,0.17
2023-01-21T23:05:56.650Z,0.19
2023-01-21T23:09:59.741Z,0.22
2023-01-21T23:14:04.464Z,0.27
2023-01-21T23:18:07.638Z,0.29
2023-01-21T23:22:11.454Z,0.33
2023-01-21T23:26:15.370Z,0.33
2023-01-21T23:30:20.931Z,0.40
2023-01-21T23:34:23.849Z,0.43
2023-01-21T23:38:27.075Z,0.45
2023-01-21T23:42:30.115Z,0.54
2023-01-21T23:46:35.449Z,0.54
2023-01-21T23:50:38.572Z,0.60
2023-01-21T23:54:41.859Z,0.65
2023-01-21T23:58:44.921Z,0.69
